sensor_id;sensor_type;location;lat;lon;timestamp;P1;durP1;ratioP1;P2;durP2;ratioP2
20093;SDS011;10206;48.012;10.030;2022-11-15T00:00:40;5.23;;;2.60;;
20093;SDS011;10206;48.012;10.030;2022-11-15T00:03:06;3.00;;;2.70;;
20093;SDS011;10206;48.012;10.030;2022-11-15T00:05:34;2.97;;;2.77;;
20093;SDS011;10206;48.012;10.030;2022-11-15T00:08:01;3.40;;;2.90;;
20093;SDS011;10206;48.012;10.030;2022-11-15T00:10:27;3.43;;;3.03;;
20093;SDS011;10206;48.012;10.030;2022-11-15T00:12:53;5.70;;;3.20;;
20093;SDS011;10206;48.012;10.030;2022-11-15T00:15:19;4.07;;;3.43;;
20093;SDS011;10206;48.012;10.030;2022-11-15T00:17:48;3.70;;;2.77;;
20093;SDS011;10206;48.012;10.030;2022-11-15T00:20:14;4.40;;;2.60;;
20093;SDS011;10206;48.012;10.030;2022-11-15T00:22:42;3.67;;;3.00;;
20093;SDS011;10206;48.012;10.030;2022-11-15T00:25:08;3.50;;;3.20;;
20093;SDS011;10206;48.012;10.030;2022-11-15T00:27:34;5.60;;;5.00;;
20093;SDS011;10206;48.012;10.030;2022-11-15T00:30:00;4.90;;;3.40;;
20093;SDS011;10206;48.012;10.030;2022-11-15T00:32:26;4.40;;;3.40;;
20093;SDS011;10206;48.012;10.030;2022-11-15T00:34:57;4.33;;;3.60;;
20093;SDS011;10206;48.012;10.030;2022-11-15T00:37:23;4.63;;;3.50;;
20093;SDS011;10206;48.012;10.030;2022-11-15T00:39:49;4.00;;;3.60;;
20093;SDS011;10206;48.012;10.030;2022-11-15T00:42:15;5.47;;;3.30;;
20093;SDS011;10206;48.012;10.030;2022-11-15T00:44:41;5.67;;;4.30;;
20093;SDS011;10206;48.012;10.030;2022-11-15T00:47:07;4.20;;;3.80;;
20093;SDS011;10206;48.012;10.030;2022-11-15T00:49:33;4.83;;;4.13;;
20093;SDS011;10206;48.012;10.030;2022-11-15T00:51:59;7.00;;;4.73;;
20093;SDS011;10206;48.012;10.030;2022-11-15T00:54:25;5.70;;;4.27;;
20093;SDS011;10206;48.012;10.030;2022-11-15T00:56:51;5.57;;;3.80;;
20093;SDS011;10206;48.012;10.030;2022-11-15T00:59:17;8.13;;;4.10;;
20093;SDS011;10206;48.012;10.030;2022-11-15T01:01:43;4.63;;;3.67;;
20093;SDS011;10206;48.012;10.030;2022-11-15T01:04:10;4.80;;;3.73;;
20093;SDS011;10206;48.012;10.030;2022-11-15T01:06:36;5.17;;;3.90;;
20093;SDS011;10206;48.012;10.030;2022-11-15T01:09:02;4.70;;;3.57;;
20093;SDS011;10206;48.012;10.030;2022-11-15T01:11:28;4.00;;;3.20;;
20093;SDS011;10206;48.012;10.030;2022-11-15T01:13:54;6.00;;;3.37;;
20093;SDS011;10206;48.012;10.030;2022-11-15T01:16:21;3.60;;;3.07;;
20093;SDS011;10206;48.012;10.030;2022-11-15T01:18:47;5.57;;;3.60;;
20093;SDS011;10206;48.012;10.030;2022-11-15T01:21:14;5.47;;;3.40;;
20093;SDS011;10206;48.012;10.030;2022-11-15T01:23:42;4.67;;;3.33;;
20093;SDS011;10206;48.012;10.030;2022-11-15T01:26:10;4.70;;;3.43;;
20093;SDS011;10206;48.012;10.030;2022-11-15T01:28:37;5.07;;;3.40;;
20093;SDS011;10206;48.012;10.030;2022-11-15T01:31:06;4.60;;;3.10;;
20093;SDS011;10206;48.012;10.030;2022-11-15T01:33:43;4.53;;;3.57;;
20093;SDS011;10206;48.012;10.030;2022-11-15T01:36:13;4.17;;;3.50;;
20093;SDS011;10206;48.012;10.030;2022-11-15T01:38:41;4.50;;;3.43;;
20093;SDS011;10206;48.012;10.030;2022-11-15T01:41:14;5.70;;;3.63;;
20093;SDS011;10206;48.012;10.030;2022-11-15T01:43:46;4.67;;;3.27;;
20093;SDS011;10206;48.012;10.030;2022-11-15T01:46:24;3.77;;;3.13;;
20093;SDS011;10206;48.012;10.030;2022-11-15T01:48:51;4.50;;;3.47;;
20093;SDS011;10206;48.012;10.030;2022-11-15T01:51:20;4.37;;;3.27;;
20093;SDS011;10206;48.012;10.030;2022-11-15T01:53:48;4.40;;;3.20;;
20093;SDS011;10206;48.012;10.030;2022-11-15T01:56:18;5.00;;;3.53;;
20093;SDS011;10206;48.012;10.030;2022-11-15T01:58:48;4.10;;;3.50;;
20093;SDS011;10206;48.012;10.030;2022-11-15T02:01:16;4.50;;;3.50;;
20093;SDS011;10206;48.012;10.030;2022-11-15T02:03:47;3.87;;;3.00;;
20093;SDS011;10206;48.012;10.030;2022-11-15T02:06:26;5.40;;;3.37;;
20093;SDS011;10206;48.012;10.030;2022-11-15T02:08:52;3.33;;;2.93;;
20093;SDS011;10206;48.012;10.030;2022-11-15T02:11:19;4.23;;;3.13;;
20093;SDS011;10206;48.012;10.030;2022-11-15T02:13:45;4.07;;;3.20;;
20093;SDS011;10206;48.012;10.030;2022-11-15T02:16:23;3.70;;;3.20;;
20093;SDS011;10206;48.012;10.030;2022-11-15T02:24:57;4.60;;;3.30;;
20093;SDS011;10206;48.012;10.030;2022-11-15T02:30:42;6.17;;;4.03;;
20093;SDS011;10206;48.012;10.030;2022-11-15T02:35:57;6.50;;;4.00;;
20093;SDS011;10206;48.012;10.030;2022-11-15T02:38:40;4.50;;;3.70;;
20093;SDS011;10206;48.012;10.030;2022-11-15T02:41:20;4.67;;;3.63;;
20093;SDS011;10206;48.012;10.030;2022-11-15T02:49:40;4.37;;;3.53;;
20093;SDS011;10206;48.012;10.030;2022-11-15T02:52:23;4.10;;;3.30;;
20093;SDS011;10206;48.012;10.030;2022-11-15T02:54:56;4.93;;;3.77;;
20093;SDS011;10206;48.012;10.030;2022-11-15T03:03:20;7.03;;;4.17;;
20093;SDS011;10206;48.012;10.030;2022-11-15T03:05:25;6.97;;;4.37;;
20093;SDS011;10206;48.012;10.030;2022-11-15T03:11:08;5.17;;;3.93;;
20093;SDS011;10206;48.012;10.030;2022-11-15T03:13:44;6.70;;;3.73;;
20093;SDS011;10206;48.012;10.030;2022-11-15T03:19:04;6.43;;;3.73;;
20093;SDS011;10206;48.012;10.030;2022-11-15T03:21:42;5.40;;;3.77;;
20093;SDS011;10206;48.012;10.030;2022-11-15T03:24:09;5.50;;;4.10;;
20093;SDS011;10206;48.012;10.030;2022-11-15T03:26:37;5.40;;;3.73;;
20093;SDS011;10206;48.012;10.030;2022-11-15T03:29:09;5.40;;;3.70;;
20093;SDS011;10206;48.012;10.030;2022-11-15T03:31:44;5.97;;;3.83;;
20093;SDS011;10206;48.012;10.030;2022-11-15T03:36:49;5.33;;;3.67;;
20093;SDS011;10206;48.012;10.030;2022-11-15T03:39:17;6.23;;;3.60;;
20093;SDS011;10206;48.012;10.030;2022-11-15T03:44:42;3.70;;;2.90;;
20093;SDS011;10206;48.012;10.030;2022-11-15T03:47:09;4.20;;;3.50;;
20093;SDS011;10206;48.012;10.030;2022-11-15T03:49:57;5.07;;;3.50;;
20093;SDS011;10206;48.012;10.030;2022-11-15T03:52:29;5.23;;;3.10;;
20093;SDS011;10206;48.012;10.030;2022-11-15T03:54:58;4.63;;;3.70;;
20093;SDS011;10206;48.012;10.030;2022-11-15T03:57:28;3.80;;;3.20;;
20093;SDS011;10206;48.012;10.030;2022-11-15T03:59:54;4.37;;;3.20;;
20093;SDS011;10206;48.012;10.030;2022-11-15T04:02:20;3.77;;;3.13;;
20093;SDS011;10206;48.012;10.030;2022-11-15T04:04:46;3.97;;;3.30;;
20093;SDS011;10206;48.012;10.030;2022-11-15T04:07:12;5.23;;;2.93;;
20093;SDS011;10206;48.012;10.030;2022-11-15T04:09:39;3.40;;;3.07;;
20093;SDS011;10206;48.012;10.030;2022-11-15T04:12:24;3.33;;;3.03;;
20093;SDS011;10206;48.012;10.030;2022-11-15T04:14:56;4.03;;;3.17;;
20093;SDS011;10206;48.012;10.030;2022-11-15T04:17:36;5.37;;;3.30;;
20093;SDS011;10206;48.012;10.030;2022-11-15T04:20:03;4.70;;;3.40;;
20093;SDS011;10206;48.012;10.030;2022-11-15T04:22:51;4.23;;;3.30;;
20093;SDS011;10206;48.012;10.030;2022-11-15T04:25:37;4.90;;;3.23;;
20093;SDS011;10206;48.012;10.030;2022-11-15T04:28:03;4.80;;;3.13;;
20093;SDS011;10206;48.012;10.030;2022-11-15T04:30:29;4.00;;;3.50;;
20093;SDS011;10206;48.012;10.030;2022-11-15T04:32:56;4.90;;;3.50;;
20093;SDS011;10206;48.012;10.030;2022-11-15T04:35:22;4.20;;;3.17;;
20093;SDS011;10206;48.012;10.030;2022-11-15T04:37:48;5.27;;;3.47;;
20093;SDS011;10206;48.012;10.030;2022-11-15T04:40:14;5.30;;;3.50;;
20093;SDS011;10206;48.012;10.030;2022-11-15T04:42:41;6.00;;;3.30;;
20093;SDS011;10206;48.012;10.030;2022-11-15T04:45:07;5.67;;;3.17;;
20093;SDS011;10206;48.012;10.030;2022-11-15T04:47:34;5.97;;;4.37;;
20093;SDS011;10206;48.012;10.030;2022-11-15T04:50:00;5.47;;;3.80;;
20093;SDS011;10206;48.012;10.030;2022-11-15T04:52:27;6.07;;;3.67;;
20093;SDS011;10206;48.012;10.030;2022-11-15T04:54:53;6.10;;;4.00;;
20093;SDS011;10206;48.012;10.030;2022-11-15T04:57:20;5.77;;;3.87;;
20093;SDS011;10206;48.012;10.030;2022-11-15T04:59:46;5.57;;;4.07;;
20093;SDS011;10206;48.012;10.030;2022-11-15T05:02:12;4.80;;;4.00;;
20093;SDS011;10206;48.012;10.030;2022-11-15T05:04:38;6.97;;;4.00;;
20093;SDS011;10206;48.012;10.030;2022-11-15T05:07:04;7.33;;;4.53;;
20093;SDS011;10206;48.012;10.030;2022-11-15T05:09:30;21.27;;;12.87;;
20093;SDS011;10206;48.012;10.030;2022-11-15T05:11:57;30.73;;;21.20;;
20093;SDS011;10206;48.012;10.030;2022-11-15T05:14:23;21.37;;;13.40;;
20093;SDS011;10206;48.012;10.030;2022-11-15T05:16:49;17.80;;;13.17;;
20093;SDS011;10206;48.012;10.030;2022-11-15T05:19:15;9.13;;;7.57;;
20093;SDS011;10206;48.012;10.030;2022-11-15T05:21:41;17.93;;;12.93;;
20093;SDS011;10206;48.012;10.030;2022-11-15T05:24:09;15.33;;;10.93;;
20093;SDS011;10206;48.012;10.030;2022-11-15T05:26:36;64.93;;;40.23;;
20093;SDS011;10206;48.012;10.030;2022-11-15T05:29:02;61.20;;;33.17;;
20093;SDS011;10206;48.012;10.030;2022-11-15T05:31:28;26.30;;;18.10;;
20093;SDS011;10206;48.012;10.030;2022-11-15T05:33:54;14.00;;;10.63;;
20093;SDS011;10206;48.012;10.030;2022-11-15T05:36:37;12.57;;;8.87;;
20093;SDS011;10206;48.012;10.030;2022-11-15T05:39:06;12.63;;;8.57;;
20093;SDS011;10206;48.012;10.030;2022-11-15T05:41:35;8.50;;;6.30;;
20093;SDS011;10206;48.012;10.030;2022-11-15T05:44:05;9.37;;;7.23;;
20093;SDS011;10206;48.012;10.030;2022-11-15T05:46:35;7.43;;;6.57;;
20093;SDS011;10206;48.012;10.030;2022-11-15T05:49:03;5.83;;;5.00;;
20093;SDS011;10206;48.012;10.030;2022-11-15T05:51:32;8.70;;;6.00;;
20093;SDS011;10206;48.012;10.030;2022-11-15T05:53:58;10.37;;;5.97;;
20093;SDS011;10206;48.012;10.030;2022-11-15T05:56:26;9.10;;;6.47;;
20093;SDS011;10206;48.012;10.030;2022-11-15T05:58:53;7.27;;;5.77;;
20093;SDS011;10206;48.012;10.030;2022-11-15T06:01:22;10.47;;;5.70;;
20093;SDS011;10206;48.012;10.030;2022-11-15T06:03:50;9.20;;;4.87;;
20093;SDS011;10206;48.012;10.030;2022-11-15T06:06:16;7.20;;;4.83;;
20093;SDS011;10206;48.012;10.030;2022-11-15T06:08:42;6.47;;;4.17;;
20093;SDS011;10206;48.012;10.030;2022-11-15T06:11:08;7.00;;;4.63;;
20093;SDS011;10206;48.012;10.030;2022-11-15T06:13:34;6.10;;;4.77;;
20093;SDS011;10206;48.012;10.030;2022-11-15T06:16:01;5.97;;;4.30;;
20093;SDS011;10206;48.012;10.030;2022-11-15T06:18:27;5.90;;;4.50;;
20093;SDS011;10206;48.012;10.030;2022-11-15T06:20:53;6.50;;;4.60;;
20093;SDS011;10206;48.012;10.030;2022-11-15T06:23:23;6.23;;;4.60;;
20093;SDS011;10206;48.012;10.030;2022-11-15T06:25:49;7.80;;;4.07;;
20093;SDS011;10206;48.012;10.030;2022-11-15T06:28:15;5.50;;;4.50;;
20093;SDS011;10206;48.012;10.030;2022-11-15T06:30:41;6.20;;;4.13;;
20093;SDS011;10206;48.012;10.030;2022-11-15T06:33:07;5.20;;;4.27;;
20093;SDS011;10206;48.012;10.030;2022-11-15T06:35:34;6.13;;;4.00;;
20093;SDS011;10206;48.012;10.030;2022-11-15T06:38:04;4.90;;;4.00;;
20093;SDS011;10206;48.012;10.030;2022-11-15T06:40:36;8.57;;;4.27;;
20093;SDS011;10206;48.012;10.030;2022-11-15T06:43:03;7.13;;;3.63;;
20093;SDS011;10206;48.012;10.030;2022-11-15T06:45:30;5.57;;;4.40;;
20093;SDS011;10206;48.012;10.030;2022-11-15T06:47:57;7.50;;;4.37;;
20093;SDS011;10206;48.012;10.030;2022-11-15T06:50:23;4.30;;;3.70;;
20093;SDS011;10206;48.012;10.030;2022-11-15T06:52:50;6.23;;;4.17;;
20093;SDS011;10206;48.012;10.030;2022-11-15T06:55:16;7.10;;;4.07;;
20093;SDS011;10206;48.012;10.030;2022-11-15T06:57:49;5.07;;;3.83;;
20093;SDS011;10206;48.012;10.030;2022-11-15T07:00:17;7.23;;;4.10;;
20093;SDS011;10206;48.012;10.030;2022-11-15T07:02:44;5.90;;;5.10;;
20093;SDS011;10206;48.012;10.030;2022-11-15T07:05:11;6.83;;;5.80;;
20093;SDS011;10206;48.012;10.030;2022-11-15T07:07:38;8.53;;;5.23;;
20093;SDS011;10206;48.012;10.030;2022-11-15T07:10:05;6.63;;;4.83;;
20093;SDS011;10206;48.012;10.030;2022-11-15T07:12:32;6.17;;;4.43;;
20093;SDS011;10206;48.012;10.030;2022-11-15T07:14:58;5.50;;;4.20;;
20093;SDS011;10206;48.012;10.030;2022-11-15T07:17:24;6.77;;;4.47;;
20093;SDS011;10206;48.012;10.030;2022-11-15T07:19:50;6.47;;;5.27;;
20093;SDS011;10206;48.012;10.030;2022-11-15T07:22:16;7.93;;;4.70;;
20093;SDS011;10206;48.012;10.030;2022-11-15T07:24:42;5.83;;;4.83;;
20093;SDS011;10206;48.012;10.030;2022-11-15T07:27:08;5.80;;;4.47;;
20093;SDS011;10206;48.012;10.030;2022-11-15T07:29:35;6.80;;;4.70;;
20093;SDS011;10206;48.012;10.030;2022-11-15T07:32:01;6.07;;;4.60;;
20093;SDS011;10206;48.012;10.030;2022-11-15T07:34:27;5.23;;;3.87;;
20093;SDS011;10206;48.012;10.030;2022-11-15T07:36:53;6.27;;;4.27;;
20093;SDS011;10206;48.012;10.030;2022-11-15T07:39:19;5.73;;;4.27;;
20093;SDS011;10206;48.012;10.030;2022-11-15T07:41:45;5.97;;;4.53;;
20093;SDS011;10206;48.012;10.030;2022-11-15T07:44:13;6.97;;;4.90;;
20093;SDS011;10206;48.012;10.030;2022-11-15T07:46:39;6.57;;;4.63;;
20093;SDS011;10206;48.012;10.030;2022-11-15T07:49:05;6.53;;;4.43;;
20093;SDS011;10206;48.012;10.030;2022-11-15T07:51:31;6.47;;;4.10;;
20093;SDS011;10206;48.012;10.030;2022-11-15T07:53:57;5.87;;;4.40;;
20093;SDS011;10206;48.012;10.030;2022-11-15T07:56:23;4.80;;;4.30;;
20093;SDS011;10206;48.012;10.030;2022-11-15T07:58:49;6.37;;;5.00;;
20093;SDS011;10206;48.012;10.030;2022-11-15T08:01:15;7.00;;;4.70;;
20093;SDS011;10206;48.012;10.030;2022-11-15T08:03:41;7.70;;;5.27;;
20093;SDS011;10206;48.012;10.030;2022-11-15T08:06:07;5.73;;;5.07;;
20093;SDS011;10206;48.012;10.030;2022-11-15T08:08:34;7.80;;;5.20;;
20093;SDS011;10206;48.012;10.030;2022-11-15T08:11:00;7.30;;;4.93;;
20093;SDS011;10206;48.012;10.030;2022-11-15T08:13:26;7.00;;;5.03;;
20093;SDS011;10206;48.012;10.030;2022-11-15T08:15:56;6.10;;;4.67;;
20093;SDS011;10206;48.012;10.030;2022-11-15T08:18:24;6.67;;;5.97;;
20093;SDS011;10206;48.012;10.030;2022-11-15T08:20:50;60.70;;;28.07;;
20093;SDS011;10206;48.012;10.030;2022-11-15T08:23:16;14.63;;;8.70;;
20093;SDS011;10206;48.012;10.030;2022-11-15T08:25:42;8.43;;;5.57;;
20093;SDS011;10206;48.012;10.030;2022-11-15T08:28:09;7.13;;;5.67;;
20093;SDS011;10206;48.012;10.030;2022-11-15T08:30:39;8.23;;;6.80;;
20093;SDS011;10206;48.012;10.030;2022-11-15T08:33:10;8.97;;;7.20;;
20093;SDS011;10206;48.012;10.030;2022-11-15T08:35:38;6.10;;;5.33;;
20093;SDS011;10206;48.012;10.030;2022-11-15T08:38:05;9.20;;;6.80;;
20093;SDS011;10206;48.012;10.030;2022-11-15T08:40:31;5.63;;;5.10;;
20093;SDS011;10206;48.012;10.030;2022-11-15T08:42:57;11.53;;;5.63;;
20093;SDS011;10206;48.012;10.030;2022-11-15T08:45:24;6.80;;;6.10;;
20093;SDS011;10206;48.012;10.030;2022-11-15T08:47:50;5.20;;;4.63;;
20093;SDS011;10206;48.012;10.030;2022-11-15T08:50:16;6.53;;;4.00;;
20093;SDS011;10206;48.012;10.030;2022-11-15T08:52:42;4.30;;;3.90;;
20093;SDS011;10206;48.012;10.030;2022-11-15T08:55:08;4.53;;;4.00;;
20093;SDS011;10206;48.012;10.030;2022-11-15T08:57:34;5.20;;;4.53;;
20093;SDS011;10206;48.012;10.030;2022-11-15T09:00:00;5.57;;;4.63;;
20093;SDS011;10206;48.012;10.030;2022-11-15T09:02:27;5.87;;;5.17;;
20093;SDS011;10206;48.012;10.030;2022-11-15T09:04:53;7.10;;;5.63;;
20093;SDS011;10206;48.012;10.030;2022-11-15T09:07:19;6.27;;;4.40;;
20093;SDS011;10206;48.012;10.030;2022-11-15T09:09:45;8.90;;;5.87;;
20093;SDS011;10206;48.012;10.030;2022-11-15T09:12:11;5.70;;;4.67;;
20093;SDS011;10206;48.012;10.030;2022-11-15T09:14:37;11.13;;;5.83;;
20093;SDS011;10206;48.012;10.030;2022-11-15T09:17:06;6.47;;;5.20;;
20093;SDS011;10206;48.012;10.030;2022-11-15T09:19:33;8.93;;;6.23;;
20093;SDS011;10206;48.012;10.030;2022-11-15T09:21:59;5.80;;;4.83;;
20093;SDS011;10206;48.012;10.030;2022-11-15T09:24:26;7.67;;;5.43;;
20093;SDS011;10206;48.012;10.030;2022-11-15T09:26:52;6.70;;;6.00;;
20093;SDS011;10206;48.012;10.030;2022-11-15T09:29:18;4.97;;;4.23;;
20093;SDS011;10206;48.012;10.030;2022-11-15T09:31:44;4.77;;;4.20;;
20093;SDS011;10206;48.012;10.030;2022-11-15T09:34:11;4.83;;;4.30;;
20093;SDS011;10206;48.012;10.030;2022-11-15T09:36:37;5.03;;;4.13;;
20093;SDS011;10206;48.012;10.030;2022-11-15T09:39:03;6.10;;;4.60;;
20093;SDS011;10206;48.012;10.030;2022-11-15T09:49:33;4.70;;;4.20;;
20093;SDS011;10206;48.012;10.030;2022-11-15T09:51:59;6.37;;;4.33;;
20093;SDS011;10206;48.012;10.030;2022-11-15T09:57:09;7.47;;;4.53;;
20093;SDS011;10206;48.012;10.030;2022-11-15T09:59:55;4.50;;;3.73;;
20093;SDS011;10206;48.012;10.030;2022-11-15T10:05:18;6.10;;;4.27;;
20093;SDS011;10206;48.012;10.030;2022-11-15T10:07:53;4.97;;;4.00;;
20093;SDS011;10206;48.012;10.030;2022-11-15T10:13:09;6.83;;;4.90;;
20093;SDS011;10206;48.012;10.030;2022-11-15T10:15:44;4.80;;;4.20;;
20093;SDS011;10206;48.012;10.030;2022-11-15T10:18:23;8.20;;;6.27;;
20093;SDS011;10206;48.012;10.030;2022-11-15T10:21:14;5.43;;;4.43;;
20093;SDS011;10206;48.012;10.030;2022-11-15T10:24:11;5.53;;;4.77;;
20093;SDS011;10206;48.012;10.030;2022-11-15T10:26:38;6.03;;;5.17;;
20093;SDS011;10206;48.012;10.030;2022-11-15T10:29:10;5.93;;;4.60;;
20093;SDS011;10206;48.012;10.030;2022-11-15T10:31:37;5.10;;;3.90;;
20093;SDS011;10206;48.012;10.030;2022-11-15T10:34:13;4.73;;;3.87;;
20093;SDS011;10206;48.012;10.030;2022-11-15T10:36:44;4.10;;;3.67;;
20093;SDS011;10206;48.012;10.030;2022-11-15T10:39:12;4.70;;;3.93;;
20093;SDS011;10206;48.012;10.030;2022-11-15T10:41:40;5.50;;;4.27;;
20093;SDS011;10206;48.012;10.030;2022-11-15T10:46:38;4.73;;;4.23;;
20093;SDS011;10206;48.012;10.030;2022-11-15T10:49:19;6.33;;;4.07;;
20093;SDS011;10206;48.012;10.030;2022-11-15T10:54:13;4.00;;;3.50;;
20093;SDS011;10206;48.012;10.030;2022-11-15T10:56:53;4.90;;;3.83;;
20093;SDS011;10206;48.012;10.030;2022-11-15T10:59:28;7.10;;;4.53;;
20093;SDS011;10206;48.012;10.030;2022-11-15T11:01:56;8.67;;;4.70;;
20093;SDS011;10206;48.012;10.030;2022-11-15T11:04:22;5.03;;;4.07;;
20093;SDS011;10206;48.012;10.030;2022-11-15T11:09:36;5.23;;;4.30;;
20093;SDS011;10206;48.012;10.030;2022-11-15T11:12:04;5.07;;;4.40;;
20093;SDS011;10206;48.012;10.030;2022-11-15T11:14:35;6.23;;;4.67;;
20093;SDS011;10206;48.012;10.030;2022-11-15T11:19:58;4.87;;;4.10;;
20093;SDS011;10206;48.012;10.030;2022-11-15T11:22:41;5.70;;;4.13;;
20093;SDS011;10206;48.012;10.030;2022-11-15T11:33:44;7.00;;;5.17;;
20093;SDS011;10206;48.012;10.030;2022-11-15T11:39:33;10.37;;;5.77;;
20093;SDS011;10206;48.012;10.030;2022-11-15T11:41:43;5.93;;;5.20;;
20093;SDS011;10206;48.012;10.030;2022-11-15T11:47:03;5.70;;;4.53;;
20093;SDS011;10206;48.012;10.030;2022-11-15T11:50:00;5.67;;;4.80;;
20093;SDS011;10206;48.012;10.030;2022-11-15T11:52:42;6.57;;;4.97;;
20093;SDS011;10206;48.012;10.030;2022-11-15T11:55:36;6.30;;;4.50;;
20093;SDS011;10206;48.012;10.030;2022-11-15T11:58:17;8.70;;;5.13;;
20093;SDS011;10206;48.012;10.030;2022-11-15T12:01:07;5.87;;;4.73;;
20093;SDS011;10206;48.012;10.030;2022-11-15T12:03:46;6.93;;;4.43;;
20093;SDS011;10206;48.012;10.030;2022-11-15T12:06:21;5.90;;;4.63;;
20093;SDS011;10206;48.012;10.030;2022-11-15T12:12:00;5.37;;;4.17;;
20093;SDS011;10206;48.012;10.030;2022-11-15T12:14:45;5.63;;;4.27;;
20093;SDS011;10206;48.012;10.030;2022-11-15T12:17:25;4.93;;;4.00;;
20093;SDS011;10206;48.012;10.030;2022-11-15T12:19:57;5.97;;;4.23;;
20093;SDS011;10206;48.012;10.030;2022-11-15T12:25:05;5.70;;;4.00;;
20093;SDS011;10206;48.012;10.030;2022-11-15T12:27:56;5.03;;;3.60;;
20093;SDS011;10206;48.012;10.030;2022-11-15T12:30:40;4.53;;;4.07;;
20093;SDS011;10206;48.012;10.030;2022-11-15T12:33:33;6.33;;;5.20;;
20093;SDS011;10206;48.012;10.030;2022-11-15T12:36:12;8.73;;;6.73;;
20093;SDS011;10206;48.012;10.030;2022-11-15T12:39:00;6.77;;;4.97;;
20093;SDS011;10206;48.012;10.030;2022-11-15T12:41:29;6.30;;;5.00;;
20093;SDS011;10206;48.012;10.030;2022-11-15T12:44:00;5.60;;;4.70;;
20093;SDS011;10206;48.012;10.030;2022-11-15T12:49:00;7.87;;;5.87;;
20093;SDS011;10206;48.012;10.030;2022-11-15T13:02:22;11.70;;;6.57;;
20093;SDS011;10206;48.012;10.030;2022-11-15T13:13:08;7.33;;;6.30;;
20093;SDS011;10206;48.012;10.030;2022-11-15T13:18:37;9.13;;;6.80;;
20093;SDS011;10206;48.012;10.030;2022-11-15T13:21:05;9.50;;;5.70;;
20093;SDS011;10206;48.012;10.030;2022-11-15T13:24:04;7.13;;;5.67;;
20093;SDS011;10206;48.012;10.030;2022-11-15T13:26:35;9.13;;;6.13;;
20093;SDS011;10206;48.012;10.030;2022-11-15T13:29:04;6.43;;;5.70;;
20093;SDS011;10206;48.012;10.030;2022-11-15T13:31:44;7.73;;;6.10;;
20093;SDS011;10206;48.012;10.030;2022-11-15T13:34:28;7.93;;;6.03;;
20093;SDS011;10206;48.012;10.030;2022-11-15T13:36:58;8.13;;;6.10;;
20093;SDS011;10206;48.012;10.030;2022-11-15T13:39:27;6.43;;;5.70;;
20093;SDS011;10206;48.012;10.030;2022-11-15T13:41:58;9.73;;;6.60;;
20093;SDS011;10206;48.012;10.030;2022-11-15T13:44:26;8.20;;;6.50;;
20093;SDS011;10206;48.012;10.030;2022-11-15T13:47:28;8.27;;;6.20;;
20093;SDS011;10206;48.012;10.030;2022-11-15T13:49:51;11.03;;;7.33;;
20093;SDS011;10206;48.012;10.030;2022-11-15T13:52:17;6.97;;;6.20;;
20093;SDS011;10206;48.012;10.030;2022-11-15T13:57:24;9.87;;;6.30;;
20093;SDS011;10206;48.012;10.030;2022-11-15T14:02:25;8.67;;;6.80;;
20093;SDS011;10206;48.012;10.030;2022-11-15T14:05:16;8.20;;;6.57;;
20093;SDS011;10206;48.012;10.030;2022-11-15T14:08:02;10.40;;;6.50;;
20093;SDS011;10206;48.012;10.030;2022-11-15T14:10:47;7.73;;;6.03;;
20093;SDS011;10206;48.012;10.030;2022-11-15T14:13:29;6.93;;;5.80;;
20093;SDS011;10206;48.012;10.030;2022-11-15T14:18:44;17.53;;;13.30;;
20093;SDS011;10206;48.012;10.030;2022-11-15T14:21:15;15.00;;;10.47;;
20093;SDS011;10206;48.012;10.030;2022-11-15T14:23:42;9.23;;;7.80;;
20093;SDS011;10206;48.012;10.030;2022-11-15T14:26:29;9.83;;;7.50;;
20093;SDS011;10206;48.012;10.030;2022-11-15T14:31:52;8.93;;;6.50;;
20093;SDS011;10206;48.012;10.030;2022-11-15T14:34:31;8.83;;;6.70;;
20093;SDS011;10206;48.012;10.030;2022-11-15T14:36:57;8.50;;;6.43;;
20093;SDS011;10206;48.012;10.030;2022-11-15T14:39:23;8.43;;;6.33;;
20093;SDS011;10206;48.012;10.030;2022-11-15T14:41:50;7.87;;;6.60;;
20093;SDS011;10206;48.012;10.030;2022-11-15T14:44:16;9.30;;;6.47;;
20093;SDS011;10206;48.012;10.030;2022-11-15T14:46:43;9.43;;;6.13;;
20093;SDS011;10206;48.012;10.030;2022-11-15T14:49:09;8.07;;;5.40;;
20093;SDS011;10206;48.012;10.030;2022-11-15T14:51:38;10.73;;;7.53;;
20093;SDS011;10206;48.012;10.030;2022-11-15T14:54:04;9.47;;;6.40;;
20093;SDS011;10206;48.012;10.030;2022-11-15T14:56:30;7.60;;;6.03;;
20093;SDS011;10206;48.012;10.030;2022-11-15T14:58:56;8.80;;;6.13;;
20093;SDS011;10206;48.012;10.030;2022-11-15T15:01:24;7.73;;;6.03;;
20093;SDS011;10206;48.012;10.030;2022-11-15T15:03:51;9.13;;;5.93;;
20093;SDS011;10206;48.012;10.030;2022-11-15T15:06:20;7.40;;;5.90;;
20093;SDS011;10206;48.012;10.030;2022-11-15T15:08:47;8.03;;;5.77;;
20093;SDS011;10206;48.012;10.030;2022-11-15T15:11:21;9.23;;;6.20;;
20093;SDS011;10206;48.012;10.030;2022-11-15T15:13:50;10.60;;;6.43;;
20093;SDS011;10206;48.012;10.030;2022-11-15T15:16:17;14.77;;;9.27;;
20093;SDS011;10206;48.012;10.030;2022-11-15T15:18:43;10.20;;;7.77;;
20093;SDS011;10206;48.012;10.030;2022-11-15T15:21:23;22.13;;;12.40;;
20093;SDS011;10206;48.012;10.030;2022-11-15T15:23:52;16.43;;;12.50;;
20093;SDS011;10206;48.012;10.030;2022-11-15T15:26:19;25.77;;;16.23;;
20093;SDS011;10206;48.012;10.030;2022-11-15T15:28:45;18.53;;;13.60;;
20093;SDS011;10206;48.012;10.030;2022-11-15T15:31:13;9.57;;;7.27;;
20093;SDS011;10206;48.012;10.030;2022-11-15T15:33:39;13.23;;;9.93;;
20093;SDS011;10206;48.012;10.030;2022-11-15T15:36:12;11.47;;;7.87;;
20093;SDS011;10206;48.012;10.030;2022-11-15T15:38:40;10.67;;;8.03;;
20093;SDS011;10206;48.012;10.030;2022-11-15T15:41:12;9.63;;;7.53;;
20093;SDS011;10206;48.012;10.030;2022-11-15T15:43:39;9.53;;;7.33;;
20093;SDS011;10206;48.012;10.030;2022-11-15T15:46:13;9.03;;;7.30;;
20093;SDS011;10206;48.012;10.030;2022-11-15T15:48:41;8.83;;;6.47;;
20093;SDS011;10206;48.012;10.030;2022-11-15T15:51:07;7.80;;;6.67;;
20093;SDS011;10206;48.012;10.030;2022-11-15T15:53:34;8.70;;;6.63;;
20093;SDS011;10206;48.012;10.030;2022-11-15T15:56:00;10.57;;;7.23;;
20093;SDS011;10206;48.012;10.030;2022-11-15T15:58:26;9.03;;;6.80;;
20093;SDS011;10206;48.012;10.030;2022-11-15T16:00:53;7.13;;;6.27;;
20093;SDS011;10206;48.012;10.030;2022-11-15T16:03:19;9.87;;;7.00;;
20093;SDS011;10206;48.012;10.030;2022-11-15T16:05:45;13.30;;;8.77;;
20093;SDS011;10206;48.012;10.030;2022-11-15T16:08:18;21.70;;;15.53;;
20093;SDS011;10206;48.012;10.030;2022-11-15T16:10:46;14.80;;;9.10;;
20093;SDS011;10206;48.012;10.030;2022-11-15T16:13:13;13.87;;;8.50;;
20093;SDS011;10206;48.012;10.030;2022-11-15T16:15:39;9.77;;;6.20;;
20093;SDS011;10206;48.012;10.030;2022-11-15T16:18:08;7.07;;;5.63;;
20093;SDS011;10206;48.012;10.030;2022-11-15T16:20:40;8.50;;;6.10;;
20093;SDS011;10206;48.012;10.030;2022-11-15T16:23:10;9.27;;;5.77;;
20093;SDS011;10206;48.012;10.030;2022-11-15T16:25:39;11.53;;;6.40;;
20093;SDS011;10206;48.012;10.030;2022-11-15T16:28:31;14.23;;;8.20;;
20093;SDS011;10206;48.012;10.030;2022-11-15T16:31:00;13.60;;;9.80;;
20093;SDS011;10206;48.012;10.030;2022-11-15T16:33:28;13.07;;;9.23;;
20093;SDS011;10206;48.012;10.030;2022-11-15T16:35:54;10.37;;;8.80;;
20093;SDS011;10206;48.012;10.030;2022-11-15T16:38:21;10.07;;;7.40;;
20093;SDS011;10206;48.012;10.030;2022-11-15T16:40:47;9.77;;;7.53;;
20093;SDS011;10206;48.012;10.030;2022-11-15T16:43:13;11.53;;;8.77;;
20093;SDS011;10206;48.012;10.030;2022-11-15T16:45:39;9.57;;;7.37;;